Latest Weather Observations for Melville Water

IDW60901

Issued at 10:11 pm WST Sunday 15 September 2019 (issued every 10 minutes, with the page automatically refreshed every 10 minutes)

About weather observations | Map of Perth area stations | Latest observations for Perth area | Other Formats
Station Details ID: 009091 Name: INNER DOLPHIN PYLON Lat: -31.99 Lon: 115.83 Height: 0.0 m
Data from the previous 72 hours. | See also: Recent months at Melville Water
Date/Time
WST
Temp
°C
App
Temp
°C
Dew
Point
°C
Rel
Hum
%
Delta-T
°C
Wind Press
QNH
hPa
Press
MSL
hPa
Rain since
9am
mm
Dir  Spd
km/h
Gust
km/h
Spd
kts
Gust
kts
15/10:00pm - - - - - SE 9 11 5 6 - - -
15/09:30pm - - - - - SSE 11 15 6 8 - - -
15/09:00pm - - - - - SSE 7 11 4 6 - - -
15/08:30pm - - - - - S 9 17 5 9 - - -
15/08:00pm - - - - - SSE 11 15 6 8 - - -
15/07:30pm - - - - - SSW 11 13 6 7 - - -
15/07:00pm - - - - - SSW 11 15 6 8 - - -
15/06:30pm - - - - - SSW 17 20 9 11 - - -
15/06:00pm - - - - - SSW 17 20 9 11 - - -
15/05:30pm - - - - - SSW 19 22 10 12 - - -
15/05:00pm - - - - - SSW 20 24 11 13 - - -
15/04:30pm - - - - - SW 24 26 13 14 - - -
15/04:00pm - - - - - SSW 24 28 13 15 - - -
15/03:30pm - - - - - SW 24 30 13 16 - - -
15/03:00pm - - - - - SW 24 28 13 15 - - -
15/02:30pm - - - - - SW 24 28 13 15 - - -
15/02:00pm - - - - - SW 20 26 11 14 - - -
15/01:30pm - - - - - SW 20 24 11 13 - - -
15/01:00pm - - - - - SW 22 26 12 14 - - -
15/12:30pm - - - - - SW 19 24 10 13 - - -
15/12:00pm - - - - - SW 15 19 8 10 - - -
15/11:30am - - - - - SW 13 19 7 10 - - -
15/11:00am - - - - - SW 7 15 4 8 - - -
15/10:30am - - - - - SW 4 9 2 5 - - -
15/10:00am - - - - - SW 4 9 2 5 - - -
15/09:30am - - - - - SW 2 9 1 5 - - -
15/09:00am - - - - - SSW 7 11 4 6 - - -
15/08:30am - - - - - S 9 13 5 7 - - -
15/08:00am - - - - - S 15 19 8 10 - - -
15/07:30am - - - - - SSE 13 17 7 9 - - -
15/07:00am - - - - - SSE 13 17 7 9 - - -
15/06:30am - - - - - S 9 13 5 7 - - -
15/06:00am - - - - - SSE 9 11 5 6 - - -
15/05:30am - - - - - SSE 9 13 5 7 - - -
15/05:00am - - - - - SSE 13 20 7 11 - - -
15/04:30am - - - - - SSE 17 20 9 11 - - -
15/04:00am - - - - - S 19 24 10 13 - - -
15/03:30am - - - - - S 20 26 11 14 - - -
15/03:00am - - - - - S 22 30 12 16 - - -
15/02:30am - - - - - S 22 28 12 15 - - -
15/02:00am - - - - - S 19 24 10 13 - - -
15/01:30am - - - - - S 13 19 7 10 - - -
15/01:00am - - - - - S 20 26 11 14 - - -
15/12:30am - - - - - S 19 28 10 15 - - -
15/12:00am - - - - - S 20 28 11 15 - - -
 
Date/Time
WST
Temp
°C
App
Temp
°C
Dew
Point
°C
Rel
Hum
%
Delta-T
°C
Wind Press
QNH
hPa
Press
MSL
hPa
Rain since
9am
mm
Dir  Spd
km/h
Gust
km/h
Spd
kts
Gust
kts
14/11:30pm - - - - - S 19 22 10 12 - - -
14/11:00pm - - - - - SSE 13 19 7 10 - - -
14/10:30pm - - - - - S 17 22 9 12 - - -
14/10:00pm - - - - - S 20 24 11 13 - - -
14/09:30pm - - - - - SSW 24 33 13 18 - - -
14/09:00pm - - - - - SSW 20 28 11 15 - - -
14/08:30pm - - - - - SSW 20 24 11 13 - - -
14/08:00pm - - - - - SSW 19 24 10 13 - - -
14/07:30pm - - - - - SSW 19 22 10 12 - - -
14/07:00pm - - - - - SSW 19 24 10 13 - - -
14/06:30pm - - - - - SSW 24 28 13 15 - - -
14/06:00pm - - - - - SSW 17 20 9 11 - - -
14/05:30pm - - - - - SW 17 20 9 11 - - -
14/05:00pm - - - - - SW 19 20 10 11 - - -
14/04:30pm - - - - - SSW 20 24 11 13 - - -
14/04:00pm - - - - - SSW 24 28 13 15 - - -
14/03:30pm - - - - - SW 17 22 9 12 - - -
14/03:00pm - - - - - SW 15 19 8 10 - - -
14/02:30pm - - - - - SW 19 24 10 13 - - -
14/02:00pm - - - - - SW 19 24 10 13 - - -
14/01:30pm - - - - - SW 20 24 11 13 - - -
14/01:00pm - - - - - SW 17 20 9 11 - - -
14/12:30pm - - - - - WSW 11 15 6 8 - - -
14/12:00pm - - - - - SW 17 19 9 10 - - -
14/11:30am - - - - - WSW 7 11 4 6 - - -
14/11:00am - - - - - SW 9 11 5 6 - - -
14/10:30am - - - - - SW 9 11 5 6 - - -
14/10:00am - - - - - SW 7 11 4 6 - - -
14/09:30am - - - - - CALM 0 0 0 0 - - -
14/09:00am - - - - - CALM 0 0 0 0 - - -
14/08:30am - - - - - CALM 0 0 0 0 - - -
14/08:00am - - - - - CALM 0 0 0 0 - - -
14/07:30am - - - - - CALM 0 4 0 2 - - -
14/07:00am - - - - - NE 6 9 3 5 - - -
14/06:30am - - - - - CALM 0 0 0 0 - - -
14/06:00am - - - - - NE 2 7 1 4 - - -
14/05:30am - - - - - ENE 13 15 7 8 - - -
14/05:00am - - - - - ENE 2 7 1 4 - - -
14/04:30am - - - - - ESE 7 9 4 5 - - -
14/04:00am - - - - - S 7 9 4 5 - - -
14/03:30am - - - - - SW 11 13 6 7 - - -
14/03:00am - - - - - SSW 9 13 5 7 - - -
14/02:30am - - - - - WSW 7 9 4 5 - - -
14/02:00am - - - - - W 2 7 1 4 - - -
14/01:30am - - - - - CALM 0 0 0 0 - - -
14/01:00am - - - - - CALM 0 0 0 0 - - -
14/12:30am - - - - - E 2 6 1 3 - - -
14/12:00am - - - - - SE 4 7 2 4 - - -
 
Date/Time
WST
Temp
°C
App
Temp
°C
Dew
Point
°C
Rel
Hum
%
Delta-T
°C
Wind Press
QNH
hPa
Press
MSL
hPa
Rain since
9am
mm
Dir  Spd
km/h
Gust
km/h
Spd
kts
Gust
kts
13/11:30pm - - - - - ESE 9 11 5 6 - - -
13/11:00pm - - - - - SE 6 9 3 5 - - -
13/10:30pm - - - - - SSE 7 9 4 5 - - -
13/10:00pm - - - - - S 9 11 5 6 - - -
13/09:30pm - - - - - S 6 7 3 4 - - -
13/09:00pm - - - - - S 7 9 4 5 - - -
13/08:30pm - - - - - S 9 11 5 6 - - -
13/08:00pm - - - - - SSW 13 15 7 8 - - -
13/07:30pm - - - - - SSW 13 15 7 8 - - -
13/07:00pm - - - - - SSW 15 19 8 10 - - -
13/06:30pm - - - - - SSW 15 19 8 10 - - -
13/06:00pm - - - - - SW 17 20 9 11 - - -
13/05:30pm - - - - - SW 15 17 8 9 - - -
13/05:00pm - - - - - SW 17 20 9 11 - - -
13/04:30pm - - - - - WSW 17 22 9 12 - - -
13/04:00pm - - - - - SW 13 15 7 8 - - -
13/03:30pm - - - - - SW 7 11 4 6 - - -
13/03:00pm - - - - - WSW 13 17 7 9 - - -
13/02:30pm - - - - - SW 19 22 10 12 - - -
13/02:00pm - - - - - SW 19 24 10 13 - - -
13/01:30pm - - - - - WSW 13 17 7 9 - - -
13/01:00pm - - - - - W 15 20 8 11 - - -
13/12:30pm - - - - - WSW 15 22 8 12 - - -
13/12:00pm - - - - - SSW 15 17 8 9 - - -
13/11:30am - - - - - SSW 2 7 1 4 - - -
13/11:00am - - - - - CALM 0 0 0 0 - - -
13/10:30am - - - - - CALM 0 0 0 0 - - -
13/10:00am - - - - - CALM 0 0 0 0 - - -
13/09:30am - - - - - CALM 0 0 0 0 - - -
13/09:00am - - - - - CALM 0 0 0 0 - - -
13/08:30am - - - - - S 2 6 1 3 - - -
13/08:00am - - - - - S 6 7 3 4 - - -
13/07:30am - - - - - ESE 9 11 5 6 - - -
13/07:00am - - - - - SE 9 9 5 5 - - -
13/06:30am - - - - - CALM 0 0 0 0 - - -
13/06:00am - - - - - CALM 0 4 0 2 - - -
13/05:30am - - - - - NW 2 7 1 4 - - -
13/05:00am - - - - - NE 7 9 4 5 - - -
13/04:30am - - - - - NNE 7 7 4 4 - - -
13/04:00am - - - - - NE 9 11 5 6 - - -
13/03:30am - - - - - NE 7 9 4 5 - - -
13/03:00am - - - - - CALM 0 0 0 0 - - -
13/02:30am - - - - - NNE 4 7 2 4 - - -
13/02:00am - - - - - ENE 6 7 3 4 - - -
13/01:30am - - - - - ENE 9 11 5 6 - - -
13/01:00am - - - - - NE 7 9 4 5 - - -
13/12:30am - - - - - ENE 7 9 4 5 - - -
13/12:00am - - - - - ENE 9 11 5 6 - - -
 
Date/Time
WST
Temp
°C
App
Temp
°C
Dew
Point
°C
Rel
Hum
%
Delta-T
°C
Wind Press
QNH
hPa
Press
MSL
hPa
Rain since
9am
mm
Dir  Spd
km/h
Gust
km/h
Spd
kts
Gust
kts
12/11:30pm - - - - - CALM 0 6 0 3 - - -
12/11:00pm - - - - - CALM 0 0 0 0 - - -
12/10:30pm - - - - - CALM 0 0 0 0 - - -

Latest Capital City Observations: Canberra | Sydney | Melbourne | Brisbane | Adelaide | Perth | Hobart | Darwin

Other formats

Comma delimited format used in spreadsheet applications
http://www.bom.gov.au/fwo/IDW60901/IDW60901.95620.axf

JavaScript Object Notation format (JSON) in row-major order
http://www.bom.gov.au/fwo/IDW60901/IDW60901.95620.json

Data quality

Most of these data are generated automatically and are frequently updated. Quality checks on data are not normally performed. It is possible for incorrect values to appear. Refer to information at About Latest Weather Observations and please check the disclaimer before using these data.